GLI weather

Glen Innes Airport
New South Wales, Australia

Public forecast

Using degrees Celsius for public forecast. Weather courtesy of forecast.io.

Closest aviation weather report (METAR) to Glen Innes Airport

Closest report is Grafton Airport, 70.1 nm (129.8 km) E. Retrieved 2019/10/19 13:00 UTC (19 minutes ago):

YGFN 191300Z AUTO 21004KT 9999 // SCT024 19/16 Q1015

Closest aviation forecast (TAF) to Glen Innes Airport

Closest forecast is Tamworth Airport, 95.2 nm (176.3 km) SSW. Retrieved 2019/10/19 12:36 UTC (43 minutes ago):

TAF TAF YSTW 191113Z 1912/2006 21010KT 9999 -DU NSC FM191400 16007KT CAVOK FM200000 20010KT CAVOK PROB30 1912/1914 5000 BLDU